sensor_id;sensor_type;location;lat;lon;timestamp;temperature;humidity
9723;DHT22;4900;49.306;8.500;2022-09-20T00:02:12;13.32;76.25
9723;DHT22;4900;49.306;8.500;2022-09-20T00:05:16;13.26;76.22
9723;DHT22;4900;49.306;8.500;2022-09-20T00:08:19;13.22;76.13
9723;DHT22;4900;49.306;8.500;2022-09-20T00:11:28;13.18;76.06
9723;DHT22;4900;49.306;8.500;2022-09-20T00:14:31;13.16;76.04
9723;DHT22;4900;49.306;8.500;2022-09-20T00:17:35;13.12;75.97
9723;DHT22;4900;49.306;8.500;2022-09-20T00:20:48;13.11;75.88
9723;DHT22;4900;49.306;8.500;2022-09-20T00:23:52;13.10;75.80
9723;DHT22;4900;49.306;8.500;2022-09-20T00:26:55;13.10;75.83
9723;DHT22;4900;49.306;8.500;2022-09-20T00:29:59;13.08;75.75
9723;DHT22;4900;49.306;8.500;2022-09-20T00:33:02;13.05;75.78
9723;DHT22;4900;49.306;8.500;2022-09-20T00:36:05;12.98;75.51
9723;DHT22;4900;49.306;8.500;2022-09-20T00:39:10;12.96;75.39
9723;DHT22;4900;49.306;8.500;2022-09-20T00:42:14;12.87;75.31
9723;DHT22;4900;49.306;8.500;2022-09-20T00:45:25;12.81;75.28
9723;DHT22;4900;49.306;8.500;2022-09-20T00:48:30;12.74;75.26
9723;DHT22;4900;49.306;8.500;2022-09-20T00:51:38;12.67;75.37
9723;DHT22;4900;49.306;8.500;2022-09-20T00:54:42;12.66;75.48
9723;DHT22;4900;49.306;8.500;2022-09-20T00:57:45;12.64;75.54
9723;DHT22;4900;49.306;8.500;2022-09-20T01:00:49;12.64;75.77
9723;DHT22;4900;49.306;8.500;2022-09-20T01:03:53;12.66;75.93
9723;DHT22;4900;49.306;8.500;2022-09-20T01:07:00;12.66;75.91
9723;DHT22;4900;49.306;8.500;2022-09-20T01:10:04;12.70;75.97
9723;DHT22;4900;49.306;8.500;2022-09-20T01:13:08;12.67;75.93
9723;DHT22;4900;49.306;8.500;2022-09-20T01:16:13;12.71;75.88
9723;DHT22;4900;49.306;8.500;2022-09-20T01:26:44;12.69;75.91
9723;DHT22;4900;49.306;8.500;2022-09-20T01:30:07;12.71;76.08
9723;DHT22;4900;49.306;8.500;2022-09-20T01:39:41;12.77;75.97
9723;DHT22;4900;49.306;8.500;2022-09-20T01:43:01;12.80;76.05
9723;DHT22;4900;49.306;8.500;2022-09-20T01:56:12;12.87;75.63
9723;DHT22;4900;49.306;8.500;2022-09-20T02:03:28;12.91;75.29
9723;DHT22;4900;49.306;8.500;2022-09-20T02:07:22;12.91;75.17
9723;DHT22;4900;49.306;8.500;2022-09-20T02:10:46;12.90;75.18
9723;DHT22;4900;49.306;8.500;2022-09-20T02:17:12;12.94;75.22
9723;DHT22;4900;49.306;8.500;2022-09-20T02:20:32;12.96;74.99
9723;DHT22;4900;49.306;8.500;2022-09-20T02:31:15;12.94;75.28
9723;DHT22;4900;49.306;8.500;2022-09-20T02:47:36;12.94;75.69
9723;DHT22;4900;49.306;8.500;2022-09-20T02:50:51;12.94;75.92
9723;DHT22;4900;49.306;8.500;2022-09-20T02:54:41;12.94;75.65
9723;DHT22;4900;49.306;8.500;2022-09-20T03:01:12;12.94;75.74
9723;DHT22;4900;49.306;8.500;2022-09-20T03:05:10;13.00;75.67
9723;DHT22;4900;49.306;8.500;2022-09-20T03:19:22;12.91;75.68
9723;DHT22;4900;49.306;8.500;2022-09-20T03:29:58;12.93;75.69
9723;DHT22;4900;49.306;8.500;2022-09-20T03:40:11;12.90;75.50
9723;DHT22;4900;49.306;8.500;2022-09-20T03:43:30;12.87;75.75
9723;DHT22;4900;49.306;8.500;2022-09-20T03:46:45;12.87;75.75
9723;DHT22;4900;49.306;8.500;2022-09-20T03:49:54;12.84;75.71
9723;DHT22;4900;49.306;8.500;2022-09-20T04:03:11;12.80;75.68
9723;DHT22;4900;49.306;8.500;2022-09-20T04:19:45;12.74;75.77
9723;DHT22;4900;49.306;8.500;2022-09-20T04:22:53;12.66;75.74
9723;DHT22;4900;49.306;8.500;2022-09-20T04:26:00;12.60;75.71
9723;DHT22;4900;49.306;8.500;2022-09-20T04:32:55;12.38;75.50
9723;DHT22;4900;49.306;8.500;2022-09-20T04:39:51;12.05;75.21
9723;DHT22;4900;49.306;8.500;2022-09-20T04:53:45;11.70;75.62
9723;DHT22;4900;49.306;8.500;2022-09-20T04:57:26;11.66;75.49
9723;DHT22;4900;49.306;8.500;2022-09-20T05:24:55;11.24;76.04
9723;DHT22;4900;49.306;8.500;2022-09-20T05:28:11;11.25;76.28
9723;DHT22;4900;49.306;8.500;2022-09-20T05:32:01;11.28;76.50
9723;DHT22;4900;49.306;8.500;2022-09-20T05:35:22;11.29;76.59
9723;DHT22;4900;49.306;8.500;2022-09-20T05:38:47;11.31;76.46
9723;DHT22;4900;49.306;8.500;2022-09-20T05:41:56;11.29;76.43
9723;DHT22;4900;49.306;8.500;2022-09-20T05:49:16;11.38;76.65
9723;DHT22;4900;49.306;8.500;2022-09-20T05:52:28;11.38;76.38
9723;DHT22;4900;49.306;8.500;2022-09-20T06:15:47;11.79;76.85
9723;DHT22;4900;49.306;8.500;2022-09-20T06:22:02;12.18;77.17
9723;DHT22;4900;49.306;8.500;2022-09-20T06:28:16;12.79;77.39
9723;DHT22;4900;49.306;8.500;2022-09-20T06:31:19;13.04;77.45
9723;DHT22;4900;49.306;8.500;2022-09-20T06:34:23;13.26;77.59
9723;DHT22;4900;49.306;8.500;2022-09-20T06:40:53;13.69;76.64
9723;DHT22;4900;49.306;8.500;2022-09-20T06:44:15;13.87;76.13
9723;DHT22;4900;49.306;8.500;2022-09-20T06:47:18;14.02;75.75
9723;DHT22;4900;49.306;8.500;2022-09-20T06:50:21;14.28;75.30
9723;DHT22;4900;49.306;8.500;2022-09-20T06:53:30;14.55;74.51
9723;DHT22;4900;49.306;8.500;2022-09-20T06:56:34;14.74;73.76
9723;DHT22;4900;49.306;8.500;2022-09-20T06:59:38;14.87;73.12
9723;DHT22;4900;49.306;8.500;2022-09-20T07:02:42;15.11;72.67
9723;DHT22;4900;49.306;8.500;2022-09-20T07:05:45;15.47;72.10
9723;DHT22;4900;49.306;8.500;2022-09-20T07:08:48;15.87;71.10
9723;DHT22;4900;49.306;8.500;2022-09-20T07:11:51;16.32;70.01
9723;DHT22;4900;49.306;8.500;2022-09-20T07:14:54;16.72;68.57
9723;DHT22;4900;49.306;8.500;2022-09-20T07:17:57;17.16;67.16
9723;DHT22;4900;49.306;8.500;2022-09-20T07:21:02;17.46;66.46
9723;DHT22;4900;49.306;8.500;2022-09-20T07:24:05;17.84;65.35
9723;DHT22;4900;49.306;8.500;2022-09-20T07:27:09;18.02;64.32
9723;DHT22;4900;49.306;8.500;2022-09-20T07:30:13;17.98;62.70
9723;DHT22;4900;49.306;8.500;2022-09-20T07:33:16;18.43;62.06
9723;DHT22;4900;49.306;8.500;2022-09-20T07:36:23;18.88;61.39
9723;DHT22;4900;49.306;8.500;2022-09-20T07:39:26;19.00;60.81
9723;DHT22;4900;49.306;8.500;2022-09-20T07:42:30;19.50;59.21
9723;DHT22;4900;49.306;8.500;2022-09-20T07:45:35;19.58;58.86
9723;DHT22;4900;49.306;8.500;2022-09-20T07:48:40;19.74;58.99
9723;DHT22;4900;49.306;8.500;2022-09-20T07:51:44;19.67;58.61
9723;DHT22;4900;49.306;8.500;2022-09-20T07:54:47;20.03;57.92
9723;DHT22;4900;49.306;8.500;2022-09-20T07:57:51;20.06;57.64
9723;DHT22;4900;49.306;8.500;2022-09-20T08:00:59;20.20;57.49
9723;DHT22;4900;49.306;8.500;2022-09-20T08:04:06;20.33;56.63
9723;DHT22;4900;49.306;8.500;2022-09-20T08:07:10;20.38;56.43
9723;DHT22;4900;49.306;8.500;2022-09-20T08:10:14;20.43;56.10
9723;DHT22;4900;49.306;8.500;2022-09-20T08:13:17;20.43;55.85
9723;DHT22;4900;49.306;8.500;2022-09-20T08:16:20;20.27;55.76
9723;DHT22;4900;49.306;8.500;2022-09-20T08:19:23;20.06;56.47
9723;DHT22;4900;49.306;8.500;2022-09-20T08:22:26;20.49;56.72
9723;DHT22;4900;49.306;8.500;2022-09-20T08:25:30;20.81;55.36
9723;DHT22;4900;49.306;8.500;2022-09-20T08:28:33;21.07;55.06
9723;DHT22;4900;49.306;8.500;2022-09-20T08:31:38;21.36;54.00
9723;DHT22;4900;49.306;8.500;2022-09-20T08:34:42;21.69;52.89
9723;DHT22;4900;49.306;8.500;2022-09-20T08:37:45;22.23;51.43
9723;DHT22;4900;49.306;8.500;2022-09-20T08:40:49;22.73;50.35
9723;DHT22;4900;49.306;8.500;2022-09-20T08:43:59;23.27;49.69
9723;DHT22;4900;49.306;8.500;2022-09-20T08:47:32;23.34;49.70
9723;DHT22;4900;49.306;8.500;2022-09-20T08:50:37;23.27;48.91
9723;DHT22;4900;49.306;8.500;2022-09-20T08:53:51;22.81;49.50
9723;DHT22;4900;49.306;8.500;2022-09-20T08:56:56;22.54;49.86
9723;DHT22;4900;49.306;8.500;2022-09-20T09:00:02;22.40;50.31
9723;DHT22;4900;49.306;8.500;2022-09-20T09:03:11;21.99;50.26
9723;DHT22;4900;49.306;8.500;2022-09-20T09:06:17;21.58;50.72
9723;DHT22;4900;49.306;8.500;2022-09-20T09:09:22;21.41;50.97
9723;DHT22;4900;49.306;8.500;2022-09-20T09:12:30;21.11;51.66
9723;DHT22;4900;49.306;8.500;2022-09-20T09:15:36;21.13;51.84
9723;DHT22;4900;49.306;8.500;2022-09-20T09:18:45;21.17;51.39
9723;DHT22;4900;49.306;8.500;2022-09-20T09:21:48;21.27;52.10
9723;DHT22;4900;49.306;8.500;2022-09-20T09:28:25;22.68;50.02
9723;DHT22;4900;49.306;8.500;2022-09-20T09:31:31;23.22;47.47
9723;DHT22;4900;49.306;8.500;2022-09-20T09:34:34;23.85;47.25
9723;DHT22;4900;49.306;8.500;2022-09-20T09:37:53;23.98;46.17
9723;DHT22;4900;49.306;8.500;2022-09-20T09:41:02;24.20;45.05
9723;DHT22;4900;49.306;8.500;2022-09-20T09:44:17;24.34;45.54
9723;DHT22;4900;49.306;8.500;2022-09-20T09:47:27;24.47;44.63
9723;DHT22;4900;49.306;8.500;2022-09-20T09:50:32;24.55;44.52
9723;DHT22;4900;49.306;8.500;2022-09-20T09:53:45;24.50;44.22
9723;DHT22;4900;49.306;8.500;2022-09-20T10:00:13;24.73;44.24
9723;DHT22;4900;49.306;8.500;2022-09-20T10:03:45;25.07;44.65
9723;DHT22;4900;49.306;8.500;2022-09-20T10:07:08;25.44;43.90
9723;DHT22;4900;49.306;8.500;2022-09-20T10:10:34;25.22;42.62
9723;DHT22;4900;49.306;8.500;2022-09-20T10:20:33;24.18;44.20
9723;DHT22;4900;49.306;8.500;2022-09-20T10:27:04;23.58;44.41
9723;DHT22;4900;49.306;8.500;2022-09-20T10:30:14;23.58;44.79
9723;DHT22;4900;49.306;8.500;2022-09-20T10:36:32;22.96;45.54
9723;DHT22;4900;49.306;8.500;2022-09-20T10:39:38;22.88;45.50
9723;DHT22;4900;49.306;8.500;2022-09-20T10:42:49;23.10;46.02
9723;DHT22;4900;49.306;8.500;2022-09-20T10:53:15;25.86;42.23
9723;DHT22;4900;49.306;8.500;2022-09-20T10:57:03;26.27;41.35
9723;DHT22;4900;49.306;8.500;2022-09-20T11:00:24;26.45;41.21
9723;DHT22;4900;49.306;8.500;2022-09-20T11:10:32;25.51;41.43
9723;DHT22;4900;49.306;8.500;2022-09-20T11:13:43;25.12;41.37
9723;DHT22;4900;49.306;8.500;2022-09-20T11:16:57;24.83;42.73
9723;DHT22;4900;49.306;8.500;2022-09-20T11:20:16;24.60;43.49
9723;DHT22;4900;49.306;8.500;2022-09-20T11:23:26;24.47;43.64
9723;DHT22;4900;49.306;8.500;2022-09-20T11:26:56;23.48;43.56
9723;DHT22;4900;49.306;8.500;2022-09-20T11:30:15;22.83;43.94
9723;DHT22;4900;49.306;8.500;2022-09-20T11:33:38;22.61;44.28
9723;DHT22;4900;49.306;8.500;2022-09-20T11:36:55;22.36;44.26
9723;DHT22;4900;49.306;8.500;2022-09-20T11:43:39;22.00;42.66
9723;DHT22;4900;49.306;8.500;2022-09-20T11:50:10;22.16;42.70
9723;DHT22;4900;49.306;8.500;2022-09-20T11:56:30;22.31;41.01
9723;DHT22;4900;49.306;8.500;2022-09-20T11:59:37;22.83;40.44
9723;DHT22;4900;49.306;8.500;2022-09-20T12:02:48;23.74;39.48
9723;DHT22;4900;49.306;8.500;2022-09-20T12:06:05;24.37;38.32
9723;DHT22;4900;49.306;8.500;2022-09-20T12:12:45;25.05;39.04
9723;DHT22;4900;49.306;8.500;2022-09-20T12:16:15;25.59;38.81
9723;DHT22;4900;49.306;8.500;2022-09-20T12:22:37;25.62;37.94
9723;DHT22;4900;49.306;8.500;2022-09-20T12:26:02;25.42;39.33
9723;DHT22;4900;49.306;8.500;2022-09-20T12:35:57;25.28;39.10
9723;DHT22;4900;49.306;8.500;2022-09-20T12:45:17;24.76;38.99
9723;DHT22;4900;49.306;8.500;2022-09-20T12:48:20;25.38;39.23
9723;DHT22;4900;49.306;8.500;2022-09-20T12:51:30;25.95;39.29
9723;DHT22;4900;49.306;8.500;2022-09-20T12:54:53;26.27;39.07
9723;DHT22;4900;49.306;8.500;2022-09-20T13:04:52;26.41;37.92
9723;DHT22;4900;49.306;8.500;2022-09-20T13:14:38;26.96;36.02
9723;DHT22;4900;49.306;8.500;2022-09-20T13:17:43;27.40;35.94
9723;DHT22;4900;49.306;8.500;2022-09-20T13:20:46;27.34;35.29
9723;DHT22;4900;49.306;8.500;2022-09-20T13:23:51;27.43;36.08
9723;DHT22;4900;49.306;8.500;2022-09-20T13:27:02;28.09;34.55
9723;DHT22;4900;49.306;8.500;2022-09-20T13:30:26;28.57;33.62
9723;DHT22;4900;49.306;8.500;2022-09-20T13:33:30;29.23;34.54
9723;DHT22;4900;49.306;8.500;2022-09-20T13:36:33;29.86;33.57
9723;DHT22;4900;49.306;8.500;2022-09-20T13:39:37;29.57;32.60
9723;DHT22;4900;49.306;8.500;2022-09-20T13:42:40;29.03;32.01
9723;DHT22;4900;49.306;8.500;2022-09-20T13:45:45;28.81;33.04
9723;DHT22;4900;49.306;8.500;2022-09-20T13:48:56;28.57;32.97
9723;DHT22;4900;49.306;8.500;2022-09-20T13:52:19;28.45;32.98
9723;DHT22;4900;49.306;8.500;2022-09-20T13:55:33;28.30;32.46
9723;DHT22;4900;49.306;8.500;2022-09-20T13:58:37;27.86;32.49
9723;DHT22;4900;49.306;8.500;2022-09-20T14:01:46;27.35;33.18
9723;DHT22;4900;49.306;8.500;2022-09-20T14:04:53;26.89;33.54
9723;DHT22;4900;49.306;8.500;2022-09-20T14:07:58;26.24;34.15
9723;DHT22;4900;49.306;8.500;2022-09-20T14:11:24;26.00;34.44
9723;DHT22;4900;49.306;8.500;2022-09-20T14:14:30;25.44;35.33
9723;DHT22;4900;49.306;8.500;2022-09-20T14:17:35;25.23;35.89
9723;DHT22;4900;49.306;8.500;2022-09-20T14:20:40;24.98;36.65
9723;DHT22;4900;49.306;8.500;2022-09-20T14:23:52;24.30;37.21
9723;DHT22;4900;49.306;8.500;2022-09-20T14:30:06;23.86;37.92
9723;DHT22;4900;49.306;8.500;2022-09-20T14:33:29;23.69;38.11
9723;DHT22;4900;49.306;8.500;2022-09-20T14:36:32;23.43;38.49
9723;DHT22;4900;49.306;8.500;2022-09-20T14:39:45;23.40;38.73
9723;DHT22;4900;49.306;8.500;2022-09-20T14:43:00;23.27;39.41
9723;DHT22;4900;49.306;8.500;2022-09-20T14:46:08;23.19;39.68
9723;DHT22;4900;49.306;8.500;2022-09-20T14:55:32;22.89;40.71
9723;DHT22;4900;49.306;8.500;2022-09-20T15:02:14;22.67;41.79
9723;DHT22;4900;49.306;8.500;2022-09-20T15:05:25;22.57;41.82
9723;DHT22;4900;49.306;8.500;2022-09-20T15:08:29;22.28;42.39
9723;DHT22;4900;49.306;8.500;2022-09-20T15:11:32;22.33;42.73
9723;DHT22;4900;49.306;8.500;2022-09-20T15:14:35;22.65;42.85
9723;DHT22;4900;49.306;8.500;2022-09-20T15:17:38;22.60;42.88
9723;DHT22;4900;49.306;8.500;2022-09-20T15:20:42;22.68;42.50
9723;DHT22;4900;49.306;8.500;2022-09-20T15:23:45;22.65;42.94
9723;DHT22;4900;49.306;8.500;2022-09-20T15:26:48;22.58;43.00
9723;DHT22;4900;49.306;8.500;2022-09-20T15:29:51;22.47;42.99
9723;DHT22;4900;49.306;8.500;2022-09-20T15:32:54;22.34;43.26
9723;DHT22;4900;49.306;8.500;2022-09-20T15:35:57;22.02;43.07
9723;DHT22;4900;49.306;8.500;2022-09-20T15:39:00;21.81;43.18
9723;DHT22;4900;49.306;8.500;2022-09-20T15:42:03;21.71;42.80
9723;DHT22;4900;49.306;8.500;2022-09-20T15:45:08;21.57;43.17
9723;DHT22;4900;49.306;8.500;2022-09-20T15:48:11;21.38;43.71
9723;DHT22;4900;49.306;8.500;2022-09-20T15:51:16;21.34;43.84
9723;DHT22;4900;49.306;8.500;2022-09-20T15:54:19;21.19;44.20
9723;DHT22;4900;49.306;8.500;2022-09-20T15:57:23;21.04;44.63
9723;DHT22;4900;49.306;8.500;2022-09-20T16:00:26;20.99;44.91
9723;DHT22;4900;49.306;8.500;2022-09-20T16:03:29;20.98;44.98
9723;DHT22;4900;49.306;8.500;2022-09-20T16:06:33;20.91;45.50
9723;DHT22;4900;49.306;8.500;2022-09-20T16:09:36;20.81;45.76
9723;DHT22;4900;49.306;8.500;2022-09-20T16:12:40;20.69;45.76
9723;DHT22;4900;49.306;8.500;2022-09-20T16:15:43;20.69;45.58
9723;DHT22;4900;49.306;8.500;2022-09-20T16:18:46;20.51;46.13
9723;DHT22;4900;49.306;8.500;2022-09-20T16:22:08;20.36;46.06
9723;DHT22;4900;49.306;8.500;2022-09-20T16:25:11;20.27;45.67
9723;DHT22;4900;49.306;8.500;2022-09-20T16:28:14;20.20;46.06
9723;DHT22;4900;49.306;8.500;2022-09-20T16:31:29;20.03;46.47
9723;DHT22;4900;49.306;8.500;2022-09-20T16:34:34;19.82;46.49
9723;DHT22;4900;49.306;8.500;2022-09-20T16:37:37;19.69;46.98
9723;DHT22;4900;49.306;8.500;2022-09-20T16:40:41;19.57;46.77
9723;DHT22;4900;49.306;8.500;2022-09-20T16:43:44;19.40;47.29
9723;DHT22;4900;49.306;8.500;2022-09-20T16:46:53;19.23;47.70
9723;DHT22;4900;49.306;8.500;2022-09-20T16:49:56;19.09;48.21
9723;DHT22;4900;49.306;8.500;2022-09-20T16:53:00;18.92;48.67
9723;DHT22;4900;49.306;8.500;2022-09-20T16:56:03;18.82;48.83
9723;DHT22;4900;49.306;8.500;2022-09-20T16:59:08;18.72;49.14
9723;DHT22;4900;49.306;8.500;2022-09-20T17:02:12;18.60;49.49
9723;DHT22;4900;49.306;8.500;2022-09-20T17:05:15;18.43;50.17
9723;DHT22;4900;49.306;8.500;2022-09-20T17:08:19;18.37;50.54
9723;DHT22;4900;49.306;8.500;2022-09-20T17:11:25;18.17;51.10
9723;DHT22;4900;49.306;8.500;2022-09-20T17:14:28;18.09;51.53
9723;DHT22;4900;49.306;8.500;2022-09-20T17:17:32;17.95;51.83
9723;DHT22;4900;49.306;8.500;2022-09-20T17:20:36;17.84;52.22
9723;DHT22;4900;49.306;8.500;2022-09-20T17:23:41;17.74;52.57
9723;DHT22;4900;49.306;8.500;2022-09-20T17:26:45;17.64;53.02
9723;DHT22;4900;49.306;8.500;2022-09-20T17:29:49;17.53;53.36
9723;DHT22;4900;49.306;8.500;2022-09-20T17:32:52;17.44;53.80
9723;DHT22;4900;49.306;8.500;2022-09-20T17:35:56;17.30;54.20
9723;DHT22;4900;49.306;8.500;2022-09-20T17:39:02;17.23;54.50
9723;DHT22;4900;49.306;8.500;2022-09-20T17:42:08;17.11;54.79
9723;DHT22;4900;49.306;8.500;2022-09-20T17:45:11;17.01;55.11
9723;DHT22;4900;49.306;8.500;2022-09-20T17:48:14;16.91;55.46
9723;DHT22;4900;49.306;8.500;2022-09-20T17:51:18;16.75;55.75
9723;DHT22;4900;49.306;8.500;2022-09-20T17:54:22;16.64;56.16
9723;DHT22;4900;49.306;8.500;2022-09-20T17:57:26;16.50;56.58
9723;DHT22;4900;49.306;8.500;2022-09-20T18:00:29;16.37;57.05
9723;DHT22;4900;49.306;8.500;2022-09-20T18:03:36;16.25;57.69
9723;DHT22;4900;49.306;8.500;2022-09-20T18:06:41;16.13;57.96
9723;DHT22;4900;49.306;8.500;2022-09-20T18:09:46;15.99;58.40
9723;DHT22;4900;49.306;8.500;2022-09-20T18:12:50;15.85;58.99
9723;DHT22;4900;49.306;8.500;2022-09-20T18:15:52;15.77;59.46
9723;DHT22;4900;49.306;8.500;2022-09-20T18:18:56;15.67;60.03
9723;DHT22;4900;49.306;8.500;2022-09-20T18:22:02;15.57;60.41
9723;DHT22;4900;49.306;8.500;2022-09-20T18:25:05;15.46;60.84
9723;DHT22;4900;49.306;8.500;2022-09-20T18:28:09;15.35;61.05
9723;DHT22;4900;49.306;8.500;2022-09-20T18:31:12;15.25;61.38
9723;DHT22;4900;49.306;8.500;2022-09-20T18:34:25;15.19;61.75
9723;DHT22;4900;49.306;8.500;2022-09-20T18:37:33;15.11;61.85
9723;DHT22;4900;49.306;8.500;2022-09-20T18:40:39;14.99;62.11
9723;DHT22;4900;49.306;8.500;2022-09-20T18:43:45;14.92;62.39
9723;DHT22;4900;49.306;8.500;2022-09-20T18:46:49;14.84;62.57
9723;DHT22;4900;49.306;8.500;2022-09-20T18:49:54;14.74;62.90
9723;DHT22;4900;49.306;8.500;2022-09-20T18:52:58;14.69;63.18
9723;DHT22;4900;49.306;8.500;2022-09-20T18:56:06;14.63;63.55
9723;DHT22;4900;49.306;8.500;2022-09-20T18:59:21;14.57;63.77
9723;DHT22;4900;49.306;8.500;2022-09-20T19:05:46;14.53;64.05
9723;DHT22;4900;49.306;8.500;2022-09-20T19:09:01;14.49;64.15
9723;DHT22;4900;49.306;8.500;2022-09-20T19:12:28;14.46;64.34
9723;DHT22;4900;49.306;8.500;2022-09-20T19:19:26;14.39;64.70
9723;DHT22;4900;49.306;8.500;2022-09-20T19:23:03;14.36;64.98
9723;DHT22;4900;49.306;8.500;2022-09-20T19:29:24;14.36;65.77
9723;DHT22;4900;49.306;8.500;2022-09-20T19:32:29;14.33;65.91
9723;DHT22;4900;49.306;8.500;2022-09-20T19:35:35;14.33;65.94
9723;DHT22;4900;49.306;8.500;2022-09-20T19:39:02;14.34;66.12
9723;DHT22;4900;49.306;8.500;2022-09-20T19:52:41;14.16;66.21
9723;DHT22;4900;49.306;8.500;2022-09-20T19:55:47;14.16;66.36
9723;DHT22;4900;49.306;8.500;2022-09-20T19:58:53;14.11;66.34
9723;DHT22;4900;49.306;8.500;2022-09-20T20:01:58;14.06;66.54
9723;DHT22;4900;49.306;8.500;2022-09-20T20:05:02;14.02;66.45
9723;DHT22;4900;49.306;8.500;2022-09-20T20:08:38;14.01;66.47
9723;DHT22;4900;49.306;8.500;2022-09-20T20:12:21;13.98;66.72
9723;DHT22;4900;49.306;8.500;2022-09-20T20:15:44;13.98;66.73
9723;DHT22;4900;49.306;8.500;2022-09-20T20:26:32;13.97;66.75
9723;DHT22;4900;49.306;8.500;2022-09-20T20:29:35;13.98;66.78
9723;DHT22;4900;49.306;8.500;2022-09-20T20:32:39;13.97;67.01
9723;DHT22;4900;49.306;8.500;2022-09-20T20:35:51;13.93;67.17
9723;DHT22;4900;49.306;8.500;2022-09-20T20:38:55;13.86;67.34
9723;DHT22;4900;49.306;8.500;2022-09-20T20:41:59;13.81;67.38
9723;DHT22;4900;49.306;8.500;2022-09-20T20:45:06;13.76;67.42
9723;DHT22;4900;49.306;8.500;2022-09-20T20:48:09;13.70;67.52
9723;DHT22;4900;49.306;8.500;2022-09-20T20:51:15;13.60;67.60
9723;DHT22;4900;49.306;8.500;2022-09-20T20:54:18;13.52;67.82
9723;DHT22;4900;49.306;8.500;2022-09-20T20:57:23;13.44;68.02
9723;DHT22;4900;49.306;8.500;2022-09-20T21:00:27;13.40;68.19
9723;DHT22;4900;49.306;8.500;2022-09-20T21:03:31;13.32;68.40
9723;DHT22;4900;49.306;8.500;2022-09-20T21:06:35;13.32;68.68
9723;DHT22;4900;49.306;8.500;2022-09-20T21:09:39;13.26;68.81
9723;DHT22;4900;49.306;8.500;2022-09-20T21:12:41;13.24;69.11
9723;DHT22;4900;49.306;8.500;2022-09-20T21:15:44;13.26;69.40
9723;DHT22;4900;49.306;8.500;2022-09-20T21:18:48;13.28;69.65
9723;DHT22;4900;49.306;8.500;2022-09-20T21:21:52;13.32;69.83
9723;DHT22;4900;49.306;8.500;2022-09-20T21:24:54;13.36;69.96
9723;DHT22;4900;49.306;8.500;2022-09-20T21:27:57;13.40;70.00
9723;DHT22;4900;49.306;8.500;2022-09-20T21:31:01;13.43;69.90
9723;DHT22;4900;49.306;8.500;2022-09-20T21:34:05;13.44;69.90
9723;DHT22;4900;49.306;8.500;2022-09-20T21:37:09;13.43;69.79
9723;DHT22;4900;49.306;8.500;2022-09-20T21:40:12;13.40;69.75
9723;DHT22;4900;49.306;8.500;2022-09-20T21:43:15;13.42;69.81
9723;DHT22;4900;49.306;8.500;2022-09-20T21:46:39;13.43;69.94
9723;DHT22;4900;49.306;8.500;2022-09-20T21:49:42;13.39;69.80
9723;DHT22;4900;49.306;8.500;2022-09-20T21:52:45;13.38;69.75
9723;DHT22;4900;49.306;8.500;2022-09-20T21:55:54;13.33;69.74
9723;DHT22;4900;49.306;8.500;2022-09-20T21:58:58;13.24;69.89
9723;DHT22;4900;49.306;8.500;2022-09-20T22:02:03;13.14;70.01
9723;DHT22;4900;49.306;8.500;2022-09-20T22:05:07;13.07;70.13
9723;DHT22;4900;49.306;8.500;2022-09-20T22:08:10;12.97;70.22
9723;DHT22;4900;49.306;8.500;2022-09-20T22:11:14;12.87;70.29
9723;DHT22;4900;49.306;8.500;2022-09-20T22:14:17;12.79;70.23
9723;DHT22;4900;49.306;8.500;2022-09-20T22:17:21;12.70;70.19
9723;DHT22;4900;49.306;8.500;2022-09-20T22:20:26;12.59;70.23
9723;DHT22;4900;49.306;8.500;2022-09-20T22:23:29;12.53;70.43
9723;DHT22;4900;49.306;8.500;2022-09-20T22:26:38;12.46;70.68
9723;DHT22;4900;49.306;8.500;2022-09-20T22:29:41;12.41;71.01
9723;DHT22;4900;49.306;8.500;2022-09-20T22:32:44;12.41;71.49
9723;DHT22;4900;49.306;8.500;2022-09-20T22:35:47;12.39;71.63
9723;DHT22;4900;49.306;8.500;2022-09-20T22:38:50;12.38;71.59
9723;DHT22;4900;49.306;8.500;2022-09-20T22:41:54;12.36;71.76
9723;DHT22;4900;49.306;8.500;2022-09-20T22:44:57;12.36;71.91
9723;DHT22;4900;49.306;8.500;2022-09-20T22:48:01;12.35;71.92
9723;DHT22;4900;49.306;8.500;2022-09-20T22:51:06;12.29;71.94
9723;DHT22;4900;49.306;8.500;2022-09-20T22:54:11;12.28;72.05
9723;DHT22;4900;49.306;8.500;2022-09-20T22:57:14;12.24;71.91
9723;DHT22;4900;49.306;8.500;2022-09-20T23:00:17;12.21;71.86
9723;DHT22;4900;49.306;8.500;2022-09-20T23:03:21;12.15;71.83
9723;DHT22;4900;49.306;8.500;2022-09-20T23:06:29;12.13;71.76
9723;DHT22;4900;49.306;8.500;2022-09-20T23:09:32;12.04;71.63
9723;DHT22;4900;49.306;8.500;2022-09-20T23:12:35;11.99;71.45
9723;DHT22;4900;49.306;8.500;2022-09-20T23:15:38;11.97;71.25
9723;DHT22;4900;49.306;8.500;2022-09-20T23:18:41;11.88;71.11
9723;DHT22;4900;49.306;8.500;2022-09-20T23:21:44;11.77;71.03
9723;DHT22;4900;49.306;8.500;2022-09-20T23:24:48;11.71;71.10
9723;DHT22;4900;49.306;8.500;2022-09-20T23:27:53;11.63;70.95
9723;DHT22;4900;49.306;8.500;2022-09-20T23:31:00;11.56;71.29
9723;DHT22;4900;49.306;8.500;2022-09-20T23:34:05;11.53;71.44
9723;DHT22;4900;49.306;8.500;2022-09-20T23:37:08;11.48;71.36
9723;DHT22;4900;49.306;8.500;2022-09-20T23:40:11;11.35;71.31
9723;DHT22;4900;49.306;8.500;2022-09-20T23:43:15;11.29;71.31
9723;DHT22;4900;49.306;8.500;2022-09-20T23:46:20;11.24;71.31
9723;DHT22;4900;49.306;8.500;2022-09-20T23:49:23;11.18;71.35
9723;DHT22;4900;49.306;8.500;2022-09-20T23:52:26;11.11;71.46
9723;DHT22;4900;49.306;8.500;2022-09-20T23:55:28;11.07;71.56
9723;DHT22;4900;49.306;8.500;2022-09-20T23:58:35;10.97;71.44
